Terminal Aerodrome Forecast
Issued by NWS

Home | Current Version | Previous Version | Text Only | Print | Product List | Glossary On
Versions: 1 2 3 4 5 6 7 8 9 10 11 12 13 14 15 16 17 18 19 20 21 22 23
814
FTUS43 KGRR 060756 AAA
TAFJXN
TAF AMD
KJXN 060756Z 0608/0706 24004KT P6SM SCT025 BKN120 OVC200
     FM061600 23011KT P6SM -SN OVC030=

USA.gov is the U.S. government's official web portal to all federal, state and local government web resources and services.